Time;durP1;ratioP1;P1;durP2;ratioP2;P2;SDS_P1;SDS_P2;PMS_P1;PMS_P2;Temp;Humidity;BMP_temperature;BMP_pressure;BME280_temperature;BME280_humidity;BME280_pressure;Samples;Min_cycle;Max_cycle;Signal;HPM_P1;HPM_P2
2022/04/12 00:00:43;;;;;;;;;5.00;4.00;;;;;18.08;47.28;100081.59;2113662;27;48055;-53
2022/04/12 00:01:44;;;;;;;;;4.00;3.67;;;;;18.08;47.60;100076.22;2096077;28;47231;-50
2022/04/12 00:02:45;;;;;;;;;3.33;3.33;;;;;18.08;47.42;100078.03;2097348;28;47524;-54
2022/04/12 00:03:46;;;;;;;;;4.20;4.20;;;;;18.07;47.28;100071.81;2105783;27;47854;-53
2022/04/12 00:04:47;;;;;;;;;1.00;1.00;;;;;18.07;47.35;100076.31;2108615;27;47982;-54
2022/04/12 00:05:47;;;;;;;;;2.20;2.20;;;;;18.06;47.50;100069.22;2110280;27;47362;-52
2022/04/12 00:06:48;;;;;;;;;5.00;4.00;;;;;18.05;47.34;100070.19;2105069;28;47369;-49
2022/04/12 00:07:49;;;;;;;;;3.00;3.00;;;;;18.05;47.16;100072.88;2102531;27;47424;-51
2022/04/12 00:08:49;;;;;;;;;4.00;4.00;;;;;18.05;47.30;100064.81;2108764;27;47752;-53
2022/04/12 00:09:50;;;;;;;;;3.25;3.25;;;;;18.02;47.46;100065.84;2106577;27;47738;-50
2022/04/12 00:10:50;;;;;;;;;3.00;3.00;;;;;18.04;47.67;100071.09;2110396;27;47456;-54
2022/04/12 00:11:50;;;;;;;;;3.00;3.00;;;;;18.02;47.55;100065.84;2106808;27;47763;-52
2022/04/12 00:12:51;;;;;;;;;3.33;3.00;;;;;18.02;47.56;100064.97;2108090;27;47797;-51
2022/04/12 00:13:52;;;;;;;;;3.00;3.00;;;;;18.01;47.54;100069.50;2110112;27;46280;-51
2022/04/12 00:14:52;;;;;;;;;4.00;4.00;;;;;17.99;47.57;100075.91;2105177;27;48039;-50
2022/04/12 00:15:52;;;;;;;;;4.00;4.00;;;;;17.98;47.80;100068.81;2110324;27;47372;-49
2022/04/12 00:19:02;;;;;;;;;4.33;4.33;;;;;17.97;47.77;100065.28;2108712;27;47697;-53
2022/04/12 00:19:32;;;;;;;;;3.00;3.00;;;;;17.94;48.06;100070.84;2112321;27;48165;-51
2022/04/12 00:20:34;;;;;;;;;6.00;4.00;;;;;17.95;47.59;100072.56;2111412;27;47401;-53
2022/04/12 00:21:35;;;;;;;;;4.20;3.20;;;;;17.94;47.45;100071.72;2107334;27;47364;-51
2022/04/12 00:22:36;;;;;;;;;5.00;4.00;;;;;17.93;47.88;100067.31;2107691;27;47466;-56
2022/04/12 00:23:36;;;;;;;;;3.33;3.33;;;;;17.92;48.12;100075.44;2110398;27;48072;-52
2022/04/12 00:24:36;;;;;;;;;5.00;5.00;;;;;17.89;47.75;100068.44;2100990;27;47367;-52
2022/04/12 00:25:37;;;;;;;;;3.25;3.25;;;;;17.89;47.80;100071.13;2109628;27;47723;-52
2022/04/12 00:26:37;;;;;;;;;3.00;3.00;;;;;17.89;47.80;100072.94;2109861;27;47851;-52
2022/04/12 00:27:39;;;;;;;;;3.75;3.75;;;;;17.89;47.79;100072.94;2113411;27;47688;-54
2022/04/12 00:28:41;;;;;;;;;3.00;3.00;;;;;17.88;47.65;100074.75;2111333;27;47770;-51
2022/04/12 00:29:42;;;;;;;;;4.60;4.20;;;;;17.88;47.75;100071.22;2108124;27;47812;-53
2022/04/12 00:30:43;;;;;;;;;6.00;4.33;;;;;17.88;47.87;100074.75;2106938;27;47564;-53
2022/04/12 00:31:43;;;;;;;;;4.00;4.00;;;;;17.87;47.76;100075.72;2108950;27;47889;-53
2022/04/12 00:32:44;;;;;;;;;4.00;4.00;;;;;17.87;48.11;100078.41;2113792;27;47882;-54
2022/04/12 00:33:44;;;;;;;;;3.50;3.50;;;;;17.87;48.10;100078.41;2095138;28;47844;-52
2022/04/12 00:34:45;;;;;;;;;3.33;3.33;;;;;17.86;47.93;100078.50;2092771;28;46944;-51
2022/04/12 00:35:45;;;;;;;;;2.00;2.00;;;;;17.86;48.08;100083.88;2110751;27;47929;-51
2022/04/12 00:36:46;;;;;;;;;4.00;4.00;;;;;17.85;47.90;100083.00;2109706;27;48123;-55
2022/04/12 00:37:50;;;;;;;;;3.25;3.25;;;;;17.84;48.17;100086.66;2105029;28;48241;-50
2022/04/12 00:38:50;;;;;;;;;3.00;3.00;;;;;17.83;48.14;100079.56;2105950;27;47816;-55
2022/04/12 00:39:51;;;;;;;;;4.00;4.00;;;;;17.82;47.94;100077.84;2105649;27;48093;-51
2022/04/12 00:40:53;;;;;;;;;4.25;3.00;;;;;17.82;48.23;100075.16;2105053;28;47477;-52
2022/04/12 00:41:54;;;;;;;;;2.50;2.50;;;;;17.83;48.33;100084.06;2107384;27;47797;-53
2022/04/12 00:42:54;;;;;;;;;4.25;4.25;;;;;17.83;48.11;100078.69;2106271;27;47625;-53
2022/04/12 00:43:54;;;;;;;;;4.50;4.50;;;;;17.81;48.00;100076.13;2109097;27;47808;-51
2022/04/12 00:44:55;;;;;;;;;4.75;4.75;;;;;17.81;47.95;100069.88;2109556;27;47407;-53
2022/04/12 00:46:00;;;;;;;;;4.33;4.33;;;;;17.79;48.04;100071.81;2110445;27;46442;-52
2022/04/12 00:47:00;;;;;;;;;3.80;3.20;;;;;17.77;48.07;100071.88;2099192;28;47693;-50
2022/04/12 00:48:01;;;;;;;;;4.00;4.00;;;;;17.76;48.39;100072.81;2108540;27;47960;-54
2022/04/12 00:49:02;;;;;;;;;6.00;5.00;;;;;17.75;48.10;100064.88;2104562;28;47437;-52
2022/04/12 00:50:04;;;;;;;;;4.00;3.75;;;;;17.73;48.38;100059.59;2098452;28;47774;-50
2022/04/12 00:51:04;;;;;;;;;4.75;4.75;;;;;17.71;48.36;100060.66;2107338;27;48103;-52
2022/04/12 00:52:06;;;;;;;;;3.00;3.00;;;;;17.70;48.24;100058.94;2109847;27;47301;-53
2022/04/12 00:53:08;;;;;;;;;4.00;4.00;;;;;17.70;48.26;100053.56;2110340;27;46385;-54
2022/04/12 00:54:09;;;;;;;;;4.25;4.25;;;;;17.69;48.29;100054.53;2105559;27;47680;-53
2022/04/12 00:55:09;;;;;;;;;6.25;5.00;;;;;17.68;48.33;100055.47;2107749;27;46721;-52
2022/04/12 00:56:10;;;;;;;;;5.00;4.00;;;;;17.66;48.36;100058.25;2113240;27;47724;-52
2022/04/12 00:57:12;;;;;;;;;4.67;4.33;;;;;17.65;48.50;100053.81;2107021;27;47459;-55
2022/04/12 00:58:12;;;;;;;;;5.40;5.40;;;;;17.63;48.15;100048.53;2108961;27;47591;-53
2022/04/12 00:59:13;;;;;;;;;4.00;4.00;;;;;17.63;48.21;100051.22;2104971;27;47699;-53
2022/04/12 01:00:16;;;;;;;;;2.00;2.00;;;;;17.61;48.70;100053.13;2105048;28;47913;-51
2022/04/12 01:01:16;;;;;;;;;5.00;3.60;;;;;17.62;48.83;100052.19;2093568;28;47562;-53
2022/04/12 01:02:17;;;;;;;;;3.67;3.67;;;;;17.61;48.69;100053.13;2085926;27;47465;-49
2022/04/12 01:03:17;;;;;;;;;5.00;5.00;;;;;17.60;48.71;100051.41;2112977;27;47974;-52
2022/04/12 01:04:19;;;;;;;;;2.75;2.75;;;;;17.60;48.48;100056.78;2113439;27;47427;-53
2022/04/12 01:05:19;;;;;;;;;2.40;2.40;;;;;17.59;48.31;100067.63;2113331;27;47988;-53
2022/04/12 01:06:20;;;;;;;;;3.75;3.75;;;;;17.59;48.59;100059.56;2111793;27;47493;-53
2022/04/12 01:07:21;;;;;;;;;3.00;3.00;;;;;17.58;48.77;100057.84;2099355;28;47741;-53
2022/04/12 01:08:21;;;;;;;;;4.67;4.00;;;;;17.57;48.59;100058.78;2098783;28;47300;-53
2022/04/12 01:09:26;;;;;;;;;4.00;4.00;;;;;17.56;49.01;100057.94;2109258;27;47745;-51
2022/04/12 01:10:26;;;;;;;;;4.00;4.00;;;;;17.56;48.74;100057.06;2107795;27;47526;-51
2022/04/12 01:11:27;;;;;;;;;4.67;4.67;;;;;17.55;48.81;100058.03;2108694;27;48229;-50
2022/04/12 01:12:28;;;;;;;;;4.00;3.33;;;;;17.54;49.02;100065.22;2103116;27;48448;-53
2022/04/12 01:13:29;;;;;;;;;4.40;4.00;;;;;17.54;48.67;100042.91;2103287;27;48367;-51
2022/04/12 01:14:29;;;;;;;;;4.25;4.25;;;;;17.54;48.97;100049.13;2113482;27;47436;-50
2022/04/12 01:15:30;;;;;;;;;3.00;3.00;;;;;17.53;48.71;100046.50;2105623;27;47222;-53
2022/04/12 01:16:30;;;;;;;;;8.00;7.00;;;;;17.54;48.92;100048.25;2104922;28;47756;-49
2022/04/12 01:17:31;;;;;;;;;4.00;4.00;;;;;17.52;48.91;100040.28;2112384;27;47125;-50
2022/04/12 01:18:31;;;;;;;;;3.00;3.00;;;;;17.52;48.91;100039.41;2110154;27;47888;-54
2022/04/12 01:19:32;;;;;;;;;4.50;4.50;;;;;17.51;48.82;100037.69;2104787;28;47608;-53
2022/04/12 01:20:32;;;;;;;;;6.67;5.67;;;;;17.51;48.77;100037.69;2111456;27;47489;-52
2022/04/12 01:21:49;;;;;;;;;4.33;4.33;;;;;17.50;48.72;100036.84;2110176;27;47896;-54
2022/04/12 01:22:59;;;;;;;;;3.50;3.50;;;;;17.49;49.06;100039.59;2112381;27;48054;-52
2022/04/12 01:24:01;;;;;;;;;3.00;3.00;;;;;17.49;48.82;100044.97;2112541;27;47575;-52
2022/04/12 01:25:02;;;;;;;;;3.67;3.33;;;;;17.49;48.91;100042.28;2103759;27;47788;-51
2022/04/12 01:26:03;;;;;;;;;3.75;3.50;;;;;17.48;49.08;100044.13;2099785;27;47475;-51
2022/04/12 01:27:03;;;;;;;;;4.33;4.33;;;;;17.48;48.99;100044.13;2105248;27;47496;-50
2022/04/12 01:28:06;;;;;;;;;4.25;4.00;;;;;17.48;48.80;100048.63;2109810;27;47277;-51
2022/04/12 01:29:07;;;;;;;;;6.00;4.50;;;;;17.47;49.10;100042.38;2102490;28;47842;-51
2022/04/12 01:30:08;;;;;;;;;5.00;5.00;;;;;17.48;49.07;100053.97;2105215;27;47386;-49
2022/04/12 01:31:08;;;;;;;;;6.00;6.00;;;;;17.47;48.82;100046.91;2088832;28;48035;-51
2022/04/12 01:32:09;;;;;;;;;3.00;3.00;;;;;17.46;48.78;100053.22;2086220;28;47622;-52
2022/04/12 01:33:10;;;;;;;;;6.00;5.67;;;;;17.45;49.17;100055.03;2105999;27;47701;-49
2022/04/12 01:34:10;;;;;;;;;3.67;3.67;;;;;17.45;49.42;100054.19;2098402;28;47271;-54
2022/04/12 01:35:10;;;;;;;;;3.00;3.00;;;;;17.45;49.05;100049.66;2094984;28;47410;-52
2022/04/12 01:36:11;;;;;;;;;4.00;4.00;;;;;17.44;48.93;100052.44;2094796;28;47695;-52
2022/04/12 01:37:11;;;;;;;;;3.33;2.33;;;;;17.44;49.14;100047.94;2104992;27;48152;-51
2022/04/12 01:38:12;;;;;;;;;3.00;3.00;;;;;17.42;49.03;100046.31;2109307;27;47600;-54
2022/04/12 01:39:12;;;;;;;;;4.00;4.00;;;;;17.40;49.13;100046.38;2105065;27;47453;-55
2022/04/12 01:40:13;;;;;;;;;4.33;4.33;;;;;17.39;49.16;100044.66;2108051;27;48102;-50
2022/04/12 01:41:13;;;;;;;;;5.00;4.33;;;;;17.39;48.99;100039.31;2085034;28;47743;-53
2022/04/12 01:42:14;;;;;;;;;3.33;3.33;;;;;17.39;49.43;100043.81;2077380;28;47538;-52
2022/04/12 01:43:15;;;;;;;;;3.25;3.25;;;;;17.37;49.02;100046.56;2102491;28;47710;-52
2022/04/12 01:44:16;;;;;;;;;4.50;4.50;;;;;17.37;49.27;100043.91;2108179;27;48312;-50
2022/04/12 01:45:16;;;;;;;;;4.00;4.00;;;;;17.37;49.00;100049.25;2111662;27;47979;-50
2022/04/12 01:46:17;;;;;;;;;4.00;4.00;;;;;17.36;49.09;100044.84;2113104;27;47392;-53
2022/04/12 01:47:17;;;;;;;;;3.00;1.67;;;;;17.36;49.28;100047.53;2111258;27;48207;-51
2022/04/12 01:48:18;;;;;;;;;4.00;4.00;;;;;17.36;48.99;100052.91;2112582;27;47982;-54
2022/04/12 01:49:19;;;;;;;;;1.67;1.00;;;;;17.36;49.00;100050.22;2104268;27;47578;-54
2022/04/12 01:50:19;;;;;;;;;4.00;4.00;;;;;17.37;49.21;100057.31;2111326;27;47854;-51
2022/04/12 01:51:19;;;;;;;;;3.00;3.00;;;;;17.38;49.26;100063.53;2105171;27;47889;-54
2022/04/12 01:52:20;;;;;;;;;4.33;4.33;;;;;17.38;49.45;100066.22;2106867;27;47394;-53
2022/04/12 01:53:20;;;;;;;;;4.33;4.33;;;;;17.36;48.91;100063.63;2104732;27;47888;-52
2022/04/12 01:54:21;;;;;;;;;3.00;3.00;;;;;17.36;48.95;100067.16;2108647;27;47967;-52
2022/04/12 01:55:21;;;;;;;;;2.33;1.00;;;;;17.35;49.20;100070.81;2108468;27;47892;-53
2022/04/12 01:56:22;;;;;;;;;2.33;2.00;;;;;17.34;49.14;100069.09;2112720;27;47100;-53
2022/04/12 01:57:23;;;;;;;;;1.00;1.00;;;;;17.33;49.11;100072.72;2111586;27;47695;-52
2022/04/12 01:58:23;;;;;;;;;4.00;4.00;;;;;17.32;49.43;100075.50;2112892;27;47972;-52
2022/04/12 01:59:24;;;;;;;;;2.67;2.67;;;;;17.30;49.21;100072.06;2104962;27;47526;-52
2022/04/12 02:00:24;;;;;;;;;3.67;3.67;;;;;17.29;49.36;100073.00;2110427;27;47660;-53
2022/04/12 02:01:24;;;;;;;;;0.00;0.00;;;;;17.27;49.53;100074.91;2111320;27;47443;-53
2022/04/12 02:02:25;;;;;;;;;4.00;4.00;;;;;17.27;48.99;100069.53;2107084;27;45719;-51
2022/04/12 02:03:26;;;;;;;;;5.00;5.00;;;;;17.27;49.04;100066.84;2108552;27;48118;-53
2022/04/12 02:04:26;;;;;;;;;4.00;4.00;;;;;17.26;49.14;100062.44;2112698;27;47943;-52
2022/04/12 02:05:27;;;;;;;;;3.67;3.67;;;;;17.25;49.01;100058.91;2112491;27;45688;-52
2022/04/12 02:06:27;;;;;;;;;4.33;4.33;;;;;17.24;49.49;100057.19;2110267;27;47707;-50
2022/04/12 02:07:27;;;;;;;;;3.00;3.00;;;;;17.22;49.38;100064.47;2113196;27;47839;-54
2022/04/12 02:08:28;;;;;;;;;5.00;3.33;;;;;17.21;49.62;100056.50;2105789;27;47631;-51
2022/04/12 02:09:28;;;;;;;;;4.33;4.00;;;;;17.19;49.25;100056.59;2103536;27;47743;-52
2022/04/12 02:10:29;;;;;;;;;4.00;3.00;;;;;17.20;49.52;100054.78;2104473;27;47813;-53
2022/04/12 02:11:29;;;;;;;;;4.00;4.00;;;;;17.17;49.54;100060.34;2109219;27;47264;-53
2022/04/12 02:12:29;;;;;;;;;3.33;3.33;;;;;17.17;49.51;100054.97;2107711;27;47769;-53
2022/04/12 02:13:30;;;;;;;;;4.33;2.00;;;;;17.15;49.56;100057.75;2104532;27;48359;-53
2022/04/12 02:14:30;;;;;;;;;4.33;4.33;;;;;17.15;49.28;100056.84;2098374;28;47466;-55
2022/04/12 02:15:33;;;;;;;;;4.00;4.00;;;;;17.13;49.56;100062.31;2094966;28;47647;-50
2022/04/12 02:16:34;;;;;;;;;4.20;4.20;;;;;17.13;49.48;100058.75;2103508;27;47909;-52
2022/04/12 02:17:35;;;;;;;;;4.20;4.20;;;;;17.11;49.53;100050.81;2104111;27;47921;-52
2022/04/12 02:18:35;;;;;;;;;4.75;4.75;;;;;17.11;49.79;100056.19;2104239;28;47693;-50
2022/04/12 02:19:35;;;;;;;;;4.00;3.33;;;;;17.11;49.12;100056.19;2100471;27;47447;-49
2022/04/12 02:20:36;;;;;;;;;4.00;4.00;;;;;17.11;49.26;100060.69;2105612;27;47420;-50
2022/04/12 02:21:36;;;;;;;;;6.00;6.00;;;;;17.09;49.31;100055.41;2108297;27;47668;-53
2022/04/12 02:22:37;;;;;;;;;3.67;3.67;;;;;17.10;49.50;100057.13;2108465;27;47805;-50
2022/04/12 02:23:37;;;;;;;;;3.00;3.00;;;;;17.10;49.63;100051.78;2099670;27;47764;-53
2022/04/12 02:24:38;;;;;;;;;4.00;4.00;;;;;17.10;49.53;100048.22;2111193;27;47723;-53
2022/04/12 02:25:38;;;;;;;;;5.00;3.00;;;;;17.08;49.32;100045.66;2112605;27;46111;-53
2022/04/12 02:26:39;;;;;;;;;4.00;4.00;;;;;17.09;49.49;100050.06;2106318;27;47413;-49
2022/04/12 02:27:39;;;;;;;;;5.00;4.25;;;;;17.08;49.59;100048.31;2109696;27;47504;-49
2022/04/12 02:28:40;;;;;;;;;5.50;4.75;;;;;17.09;49.20;100046.50;2111984;27;47884;-49
2022/04/12 02:29:40;;;;;;;;;2.67;2.33;;;;;17.09;49.74;100035.78;2105154;27;47950;-50
2022/04/12 02:30:41;;;;;;;;;4.00;4.00;;;;;17.07;49.59;100038.56;2108407;27;47842;-51
2022/04/12 02:31:41;;;;;;;;;2.00;2.00;;;;;17.06;49.50;100036.84;2104091;28;47709;-50
2022/04/12 02:32:42;;;;;;;;;4.00;3.33;;;;;17.05;49.69;100035.97;2109207;27;47589;-53
2022/04/12 02:33:42;;;;;;;;;5.00;4.00;;;;;17.04;49.35;100042.28;2106715;27;47745;-53
2022/04/12 02:34:42;;;;;;;;;5.00;4.00;;;;;17.04;49.52;100038.75;2106520;27;47800;-53
2022/04/12 02:35:43;;;;;;;;;3.75;3.75;;;;;17.03;49.33;100043.25;2109245;27;47540;-52
2022/04/12 02:36:43;;;;;;;;;3.75;3.75;;;;;17.03;49.39;100045.94;2105329;27;47691;-52
2022/04/12 02:37:44;;;;;;;;;5.00;5.00;;;;;17.03;49.70;100040.56;2106778;27;47424;-53
2022/04/12 02:38:44;;;;;;;;;4.33;4.33;;;;;17.03;49.71;100037.03;2105175;27;48079;-52
2022/04/12 02:39:45;;;;;;;;;3.67;2.67;;;;;17.02;49.38;100040.63;2104443;27;47382;-54
2022/04/12 02:40:45;;;;;;;;;4.00;3.00;;;;;17.03;49.44;100034.34;2101283;27;48301;-51
2022/04/12 02:41:46;;;;;;;;;3.00;3.00;;;;;17.02;49.42;100033.47;2106977;27;47514;-53
2022/04/12 02:42:46;;;;;;;;;3.00;3.00;;;;;17.02;49.01;100040.63;2104749;27;47205;-54
2022/04/12 02:43:46;;;;;;;;;3.67;3.67;;;;;17.01;49.41;100045.13;2108463;27;46909;-50
2022/04/12 02:44:47;;;;;;;;;3.00;3.00;;;;;17.02;49.47;100046.00;2105345;27;47424;-53
2022/04/12 02:45:47;;;;;;;;;3.67;3.67;;;;;17.01;49.35;100047.81;2106842;27;47549;-48
2022/04/12 02:46:48;;;;;;;;;4.00;4.00;;;;;16.99;49.36;100051.53;2107318;27;47665;-51
2022/04/12 02:47:48;;;;;;;;;4.67;4.00;;;;;16.99;49.66;100054.22;2104532;28;47753;-51
2022/04/12 02:48:49;;;;;;;;;0.00;0.00;;;;;16.98;49.34;100049.81;2112007;27;47493;-50
2022/04/12 02:49:49;;;;;;;;;4.67;4.00;;;;;16.96;49.37;100041.00;2113144;27;47898;-50
2022/04/12 02:50:50;;;;;;;;;2.33;2.33;;;;;16.95;48.96;100042.81;2104875;27;48122;-51
2022/04/12 02:51:51;;;;;;;;;2.25;2.00;;;;;16.94;49.52;100042.91;2088374;28;48008;-48
2022/04/12 02:52:52;;;;;;;;;3.00;3.00;;;;;16.93;49.49;100046.56;2081807;28;46468;-50
2022/04/12 02:53:52;;;;;;;;;4.00;4.00;;;;;16.92;49.37;100048.38;2104312;28;47547;-48
2022/04/12 02:54:52;;;;;;;;;3.33;3.33;;;;;16.93;49.24;100057.28;2085783;28;47879;-52
2022/04/12 02:55:53;;;;;;;;;4.00;4.00;;;;;16.92;49.31;100052.88;2086037;28;47549;-49
2022/04/12 02:56:53;;;;;;;;;3.00;3.00;;;;;16.91;49.31;100062.72;2104204;28;47500;-51
2022/04/12 02:57:54;;;;;;;;;2.00;2.00;;;;;16.92;49.21;100051.06;2104780;27;47249;-49
2022/04/12 02:58:54;;;;;;;;;4.00;4.00;;;;;16.91;49.24;100043.97;2103271;27;47509;-53
2022/04/12 02:59:55;;;;;;;;;3.67;3.67;;;;;16.92;49.37;100050.19;2104657;28;46278;-54
2022/04/12 03:00:55;;;;;;;;;3.00;3.00;;;;;16.92;49.06;100047.50;2099306;27;47484;-53
2022/04/12 03:01:56;;;;;;;;;5.00;4.67;;;;;16.92;48.98;100042.16;2101790;28;47120;-50
2022/04/12 03:02:56;;;;;;;;;4.00;4.00;;;;;16.92;49.07;100039.47;2104275;27;47977;-51
2022/04/12 03:03:56;;;;;;;;;2.33;2.33;;;;;16.92;48.97;100043.00;2103759;27;47623;-52
2022/04/12 03:04:57;;;;;;;;;3.33;2.67;;;;;16.92;49.14;100053.72;2102917;28;47380;-50
2022/04/12 03:05:57;;;;;;;;;3.33;3.33;;;;;16.92;48.86;100048.38;2109522;27;47667;-50
2022/04/12 03:06:58;;;;;;;;;3.00;3.00;;;;;16.93;49.07;100049.25;2106160;27;47834;-53
2022/04/12 03:07:58;;;;;;;;;3.00;2.00;;;;;16.93;48.84;100046.56;2109726;27;48409;-50
2022/04/12 03:08:58;;;;;;;;;3.33;3.33;;;;;16.91;49.06;100040.44;2091153;28;47406;-50
2022/04/12 03:09:59;;;;;;;;;4.00;4.00;;;;;16.90;49.18;100042.25;2086838;28;47545;-50
2022/04/12 03:10:59;;;;;;;;;3.75;3.75;;;;;16.88;48.82;100033.41;2104177;27;48056;-53
2022/04/12 03:12:00;;;;;;;;;3.00;3.00;;;;;16.87;49.04;100031.69;2105300;27;47415;-54
2022/04/12 03:13:00;;;;;;;;;4.00;4.00;;;;;16.87;48.65;100034.34;2103886;27;47388;-53
2022/04/12 03:14:00;;;;;;;;;2.33;2.33;;;;;16.88;48.95;100029.84;2109445;27;47893;-53
2022/04/12 03:15:02;;;;;;;;;3.33;3.00;;;;;16.88;49.05;100027.19;2105100;27;47303;-50
2022/04/12 03:16:03;;;;;;;;;4.00;3.25;;;;;16.88;49.09;100027.19;2099988;28;47335;-52
2022/04/12 03:17:04;;;;;;;;;4.00;3.00;;;;;16.87;49.28;100020.09;2100331;27;48037;-51
2022/04/12 03:18:05;;;;;;;;;3.00;3.00;;;;;16.86;48.62;100016.56;2112447;27;47776;-53
2022/04/12 03:19:05;;;;;;;;;3.25;3.25;;;;;16.85;49.17;100012.16;2112708;27;47824;-49
2022/04/12 03:20:06;;;;;;;;;3.00;3.00;;;;;16.84;49.20;100007.75;2112523;27;47975;-50
2022/04/12 03:21:07;;;;;;;;;2.33;2.33;;;;;16.84;49.35;100012.25;2107149;27;48142;-53
2022/04/12 03:22:08;;;;;;;;;3.00;3.00;;;;;16.85;49.26;100017.50;2111073;27;47894;-51
2022/04/12 03:23:08;;;;;;;;;2.25;2.25;;;;;16.85;49.06;100013.97;2112789;27;47835;-52
2022/04/12 03:24:09;;;;;;;;;3.25;3.25;;;;;16.85;48.79;100009.47;2108418;27;47880;-50
2022/04/12 03:25:10;;;;;;;;;2.25;2.25;;;;;16.86;48.70;100008.50;2101005;27;48117;-51
2022/04/12 03:26:10;;;;;;;;;3.50;2.50;;;;;16.86;49.01;100013.88;2100979;27;47451;-52
2022/04/12 03:27:11;;;;;;;;;2.00;2.00;;;;;16.86;49.02;100013.00;2104390;27;48401;-53
2022/04/12 03:28:11;;;;;;;;;4.25;4.25;;;;;16.85;48.87;100009.47;2104744;27;47823;-50
2022/04/12 03:29:12;;;;;;;;;3.25;3.25;;;;;16.85;48.95;100016.66;2104907;27;47619;-53
2022/04/12 03:30:12;;;;;;;;;4.00;4.00;;;;;16.85;48.49;100016.66;2109317;27;48008;-50
2022/04/12 03:31:13;;;;;;;;;4.00;4.00;;;;;16.84;48.92;100013.09;2101489;27;47581;-54
2022/04/12 03:32:13;;;;;;;;;3.00;3.00;;;;;16.85;48.79;100011.28;2108053;27;47297;-52
2022/04/12 03:33:13;;;;;;;;;2.50;2.50;;;;;16.85;48.90;100013.97;2104807;27;47885;-51
2022/04/12 03:34:14;;;;;;;;;4.00;4.00;;;;;16.84;48.33;100018.47;2101378;28;47486;-53
2022/04/12 03:35:14;;;;;;;;;4.00;3.75;;;;;16.82;48.69;100015.03;2109742;27;47886;-52
2022/04/12 03:36:15;;;;;;;;;3.00;3.00;;;;;16.81;48.51;100012.44;2107286;27;47696;-49
2022/04/12 03:37:15;;;;;;;;;3.75;2.00;;;;;16.80;48.69;100013.38;2101842;27;47354;-53
2022/04/12 03:38:16;;;;;;;;;3.00;3.00;;;;;16.79;48.69;100008.97;2106300;27;47476;-53
2022/04/12 03:39:21;;;;;;;;;3.60;3.60;;;;;16.79;48.26;100008.97;2103763;28;47893;-52
2022/04/12 03:40:27;;;;;;;;;3.00;2.20;;;;;16.76;48.25;100008.19;2106568;27;47228;-50
2022/04/12 03:41:27;;;;;;;;;2.80;2.80;;;;;16.77;47.95;100006.41;2099897;27;47576;-52
2022/04/12 03:42:27;;;;;;;;;2.75;2.75;;;;;16.75;48.26;100009.13;2100556;28;47661;-51
2022/04/12 03:43:28;;;;;;;;;3.75;3.00;;;;;16.74;48.09;100018.13;2100820;27;47317;-53
2022/04/12 03:44:28;;;;;;;;;3.00;2.50;;;;;16.73;47.87;100008.38;2103674;27;47888;-50
2022/04/12 03:45:29;;;;;;;;;3.00;3.00;;;;;16.73;48.25;100012.88;2104662;27;47671;-52
2022/04/12 03:46:29;;;;;;;;;3.00;3.00;;;;;16.72;48.35;100019.19;2105484;27;47634;-51
2022/04/12 03:47:30;;;;;;;;;3.00;3.00;;;;;16.70;48.24;100021.94;2103612;28;47698;-52
2022/04/12 03:48:30;;;;;;;;;3.25;3.25;;;;;16.71;47.96;100030.84;2105612;27;47716;-49
2022/04/12 03:49:31;;;;;;;;;4.00;4.00;;;;;16.70;48.01;100034.50;2105699;27;47872;-52
2022/04/12 03:50:34;;;;;;;;;2.00;2.00;;;;;16.70;47.84;100039.84;2104138;28;47919;-52
2022/04/12 03:51:35;;;;;;;;;3.75;3.75;;;;;16.69;47.59;100033.63;2108754;27;47530;-50
2022/04/12 03:52:35;;;;;;;;;1.67;1.67;;;;;16.68;47.62;100026.53;2110991;27;47455;-53
2022/04/12 03:53:39;;;;;;;;;2.00;2.00;;;;;16.68;47.48;100031.03;2104277;27;48145;-50
2022/04/12 03:54:39;;;;;;;;;2.75;1.50;;;;;16.66;47.80;100032.91;2104007;27;47691;-51
2022/04/12 03:55:40;;;;;;;;;2.00;2.00;;;;;16.66;47.60;100041.81;2104022;27;47193;-53
2022/04/12 03:56:42;;;;;;;;;2.75;2.75;;;;;16.65;47.88;100037.41;2098086;27;47802;-51
2022/04/12 03:57:43;;;;;;;;;2.00;2.00;;;;;16.64;47.84;100027.66;2098229;27;47595;-52
2022/04/12 03:58:43;;;;;;;;;2.00;2.00;;;;;16.63;48.10;100023.22;2112539;27;47804;-48
2022/04/12 03:59:44;;;;;;;;;2.00;2.00;;;;;16.65;47.84;100033.88;2104851;27;47211;-53
2022/04/12 04:00:44;;;;;;;;;2.33;1.67;;;;;16.64;47.64;100024.97;2102951;27;47590;-49
2022/04/12 04:01:46;;;;;;;;;2.00;2.00;;;;;16.65;48.09;100032.06;2096265;27;48058;-52
2022/04/12 04:02:46;;;;;;;;;2.50;2.50;;;;;16.64;47.76;100030.31;2103374;27;47482;-52
2022/04/12 04:03:47;;;;;;;;;2.00;2.00;;;;;16.64;47.94;100021.41;2102478;27;47671;-50
2022/04/12 04:04:47;;;;;;;;;2.00;1.00;;;;;16.64;47.87;100029.44;2101396;28;48060;-52
2022/04/12 04:05:48;;;;;;;;;4.33;3.67;;;;;16.62;47.36;100025.97;2099431;27;47661;-52
2022/04/12 04:06:48;;;;;;;;;2.00;1.67;;;;;16.62;47.71;100028.66;2101366;27;47616;-53
2022/04/12 04:07:49;;;;;;;;;2.33;2.33;;;;;16.60;47.57;100019.84;2101296;27;47830;-49
2022/04/12 04:08:50;;;;;;;;;2.00;2.00;;;;;16.58;47.62;100025.31;2106292;27;47612;-53
2022/04/12 04:09:50;;;;;;;;;3.33;3.33;;;;;16.57;47.30;100030.75;2103994;27;48171;-52
2022/04/12 04:10:51;;;;;;;;;2.67;2.67;;;;;16.55;47.87;100030.84;2110274;27;47599;-50
2022/04/12 04:11:51;;;;;;;;;3.33;3.33;;;;;16.54;47.53;100026.44;2108826;27;46875;-52
2022/04/12 04:12:53;;;;;;;;;3.00;3.00;;;;;16.54;47.88;100028.25;2104297;28;47599;-52
2022/04/12 04:13:53;;;;;;;;;2.25;2.25;;;;;16.53;47.41;100022.03;2103082;27;47521;-50
2022/04/12 04:14:54;;;;;;;;;2.67;2.67;;;;;16.51;47.38;100015.88;2101934;27;47817;-50
2022/04/12 04:15:54;;;;;;;;;3.67;3.67;;;;;16.49;47.43;100020.47;2100886;27;47175;-50
2022/04/12 04:16:55;;;;;;;;;2.00;2.00;;;;;16.47;47.65;100023.22;2106416;27;47726;-50
2022/04/12 04:17:55;;;;;;;;;2.00;2.00;;;;;16.44;47.46;100020.75;2098774;27;47760;-52
2022/04/12 04:18:55;;;;;;;;;2.33;2.33;;;;;16.45;47.99;100029.63;2097807;28;47922;-51
2022/04/12 04:19:56;;;;;;;;;1.67;1.67;;;;;16.45;47.46;100029.63;2099076;28;47384;-50
2022/04/12 04:20:56;;;;;;;;;2.33;2.33;;;;;16.44;47.64;100023.41;2098149;28;47616;-51
2022/04/12 04:21:56;;;;;;;;;2.67;2.67;;;;;16.44;47.69;100031.44;2106971;27;47579;-51
2022/04/12 04:22:57;;;;;;;;;3.00;3.00;;;;;16.43;47.68;100032.41;2107254;27;47589;-49
2022/04/12 04:23:57;;;;;;;;;3.00;3.00;;;;;16.42;47.50;100029.81;2102395;27;48067;-53
2022/04/12 04:24:58;;;;;;;;;4.00;2.67;;;;;16.42;47.57;100033.34;2111322;27;46689;-49
2022/04/12 04:25:58;;;;;;;;;2.33;2.33;;;;;16.41;47.59;100030.78;2099008;27;46405;-50
2022/04/12 04:26:58;;;;;;;;;3.67;3.67;;;;;16.41;47.56;100031.63;2104161;27;47590;-53
2022/04/12 04:27:59;;;;;;;;;4.67;4.00;;;;;16.42;47.90;100036.03;2104550;27;48020;-49
2022/04/12 04:29:00;;;;;;;;;2.00;2.00;;;;;16.43;47.62;100034.22;2098646;28;48174;-54
2022/04/12 04:30:04;;;;;;;;;1.00;1.00;;;;;16.45;47.79;100037.66;2106703;27;47986;-49
2022/04/12 04:31:04;;;;;;;;;2.25;2.25;;;;;16.45;47.75;100037.66;2094432;28;47516;-50
2022/04/12 04:32:05;;;;;;;;;2.33;2.33;;;;;16.46;47.50;100031.34;2090906;28;47927;-53
2022/04/12 04:33:07;;;;;;;;;2.00;2.00;;;;;16.46;47.71;100040.25;2094169;28;47861;-52
2022/04/12 04:34:07;;;;;;;;;3.00;3.00;;;;;16.46;47.48;100037.59;2095788;28;47384;-50
2022/04/12 04:35:08;;;;;;;;;3.67;3.67;;;;;16.46;47.45;100040.25;2104999;28;47913;-54
2022/04/12 04:36:08;;;;;;;;;2.00;2.00;;;;;16.47;47.53;100041.13;2105018;28;48240;-54
2022/04/12 04:37:09;;;;;;;;;1.67;1.67;;;;;16.47;47.82;100038.44;2104765;28;47262;-50
2022/04/12 04:38:09;;;;;;;;;2.67;2.67;;;;;16.48;47.77;100040.16;2104893;27;48102;-50
2022/04/12 04:39:10;;;;;;;;;3.00;3.00;;;;;16.47;47.70;100035.75;2103203;28;47608;-49
2022/04/12 04:40:14;;;;;;;;;3.33;2.33;;;;;16.48;47.77;100032.13;2086866;28;47558;-49
2022/04/12 04:41:15;;;;;;;;;3.25;3.00;;;;;16.47;47.50;100031.28;2089617;28;47551;-53
2022/04/12 04:42:15;;;;;;;;;1.67;1.67;;;;;16.48;47.83;100038.34;2105363;27;47077;-50
2022/04/12 04:43:16;;;;;;;;;2.00;2.00;;;;;16.48;47.73;100045.53;2104800;28;47366;-51
2022/04/12 04:44:17;;;;;;;;;2.67;2.67;;;;;16.48;47.41;100040.16;2105124;28;47611;-52